Geneva Queen — V7YZ8 — position and weather

sailwx.info

Track history (hours):
 
Tides and Currents Weather Stations Pressure Air Temp Water Temp Dewpoint Dewpoint Depression Visibility Wind Speed Wind Dir Waves Ship Positions

Geneva Queen

Last reported at 2017-Nov-24 00:25 UTC. Time now 2017-Dec-13 20:52 UTC.
Position S 20°47' E 113°27'.
Warning: this ship's position is 19 days out of date.

Length 229 m; draft 7.1 m.

Type: Ship. MMSI: 538004774.

Date/timePositionNaut miles runAvg speedWind from/ knotsBaromVisibWave heightAir tempDewpointWater temp
2017-Nov-24 00:25S 20°47' E 113°27'613.7
2017-Nov-24 00:00S 20°41' E 113°28'713.6
2017-Nov-23 23:30S 20°34' E 113°30'2413.4
2017-Nov-23 21:42S 20°11' E 113°33'313.3
2017-Nov-23 21:28S 20°07' E 113°34'1813.9
2017-Nov-23 20:12S 19°50' E 113°38'314.2
2017-Nov-23 20:01S 19°48' E 113°39'2714.1
2017-Nov-23 18:07S 19°21' E 113°44'213.6
2017-Nov-23 17:58S 19°20' E 113°44'3812.8
2017-Nov-23 14:59S 18°42' E 113°51'612.5
2017-Nov-23 14:29S 18°36' E 113°53'612.6
2017-Nov-23 14:00S 18°30' E 113°54'612.8
2017-Nov-23 13:30S 18°24' E 113°55'5113.0
2017-Nov-23 09:33S 17°33' E 114°05'113.1
2017-Nov-23 09:28S 17°32' E 114°05'1013.4
2017-Nov-23 08:42S 17°22' E 114°07'313.0
2017-Nov-23 08:29S 17°19' E 114°08'1413.0
2017-Nov-23 07:25S 17°06' E 114°10'712.9
2017-Nov-23 06:54S 16°59' E 114°11'614.1
2017-Nov-23 06:30S 16°54' E 114°12'714.5
2017-Nov-23 05:59S 16°46' E 114°14'714.4
2017-Nov-23 05:30S 16°39' E 114°16'1013.8
2017-Nov-23 04:48S 16°30' E 114°17'513.0
2017-Nov-23 04:25S 16°25' E 114°18'512.9
2017-Nov-23 04:00S 16°20' E 114°19'712.8
2017-Nov-23 03:29S 16°13' E 114°20'813.0
2017-Nov-23 02:51S 16°05' E 114°22'513.0
2017-Nov-23 02:30S 16°01' E 114°23'  
2017-Nov-16 05:55N 22°12' E 119°50'1714.7
2017-Nov-16 04:48N 22°29' E 119°51'414.6
2017-Nov-16 04:30N 22°33' E 119°51'714.6
2017-Nov-16 04:00N 22°40' E 119°51'714.8
2017-Nov-16 03:30N 22°47' E 119°51'  
Track history (hours):
 
Tides and Currents Weather Stations Pressure Air Temp Water Temp Dewpoint Dewpoint Depression Visibility Wind Speed Wind Dir Waves Ship Positions

Geneva Queen

Last reported at 2017-Nov-24 00:25 UTC. Time now 2017-Dec-13 20:52 UTC.
Position S 20°47' E 113°27'.
Warning: this ship's position is 19 days out of date.

Length 229 m; draft 7.1 m.

Type: Ship. MMSI: 538004774.

Date/timePositionNaut miles runAvg speedWind from/ knotsBaromVisibWave heightAir tempDewpointWater temp
2017-Nov-24 00:25S 20°47' E 113°27'613.7
2017-Nov-24 00:00S 20°41' E 113°28'713.6
2017-Nov-23 23:30S 20°34' E 113°30'2413.4
2017-Nov-23 21:42S 20°11' E 113°33'313.3
2017-Nov-23 21:28S 20°07' E 113°34'1813.9
2017-Nov-23 20:12S 19°50' E 113°38'314.2
2017-Nov-23 20:01S 19°48' E 113°39'2714.1
2017-Nov-23 18:07S 19°21' E 113°44'213.6
2017-Nov-23 17:58S 19°20' E 113°44'3812.8
2017-Nov-23 14:59S 18°42' E 113°51'612.5
2017-Nov-23 14:29S 18°36' E 113°53'612.6
2017-Nov-23 14:00S 18°30' E 113°54'612.8
2017-Nov-23 13:30S 18°24' E 113°55'5113.0
2017-Nov-23 09:33S 17°33' E 114°05'113.1
2017-Nov-23 09:28S 17°32' E 114°05'1013.4
2017-Nov-23 08:42S 17°22' E 114°07'313.0
2017-Nov-23 08:29S 17°19' E 114°08'1413.0
2017-Nov-23 07:25S 17°06' E 114°10'712.9
2017-Nov-23 06:54S 16°59' E 114°11'614.1
2017-Nov-23 06:30S 16°54' E 114°12'714.5
2017-Nov-23 05:59S 16°46' E 114°14'714.4
2017-Nov-23 05:30S 16°39' E 114°16'1013.8
2017-Nov-23 04:48S 16°30' E 114°17'513.0
2017-Nov-23 04:25S 16°25' E 114°18'512.9
2017-Nov-23 04:00S 16°20' E 114°19'712.8
2017-Nov-23 03:29S 16°13' E 114°20'813.0
2017-Nov-23 02:51S 16°05' E 114°22'513.0
2017-Nov-23 02:30S 16°01' E 114°23'  
2017-Nov-16 05:55N 22°12' E 119°50'1714.7
2017-Nov-16 04:48N 22°29' E 119°51'414.6
2017-Nov-16 04:30N 22°33' E 119°51'714.6
2017-Nov-16 04:00N 22°40' E 119°51'714.8
2017-Nov-16 03:30N 22°47' E 119°51'  

Dump ship's entire track history